Terminal Aerodrome Forecast
Issued by NWS Duluth, MN

Home | Current Version | Previous Version | Text Only | Print | Product List | Glossary On
Versions: 1 2 3 4 5 6 7 8 9 10 11 12 13 14 15 16 17
000
FTUS43 KDLH 191500 AAA
TAFDLH
TAF AMD
KDLH 191528Z 1915/2012 14014KT P6SM OVC050
      TEMPO 1915/1918 4SM -RA OVC030
     FM191800 18009KT P6SM VCSH BKN060
     FM192200 15008KT P6SM SCT060=

USA.gov is the U.S. government's official web portal to all federal, state and local government web resources and services.